UNQ276 LHBP-LGTS
Flight info
| Callsign | UNQ276 |
|---|---|
| Flight time | 1h 7m |
| Altitude | 37000 |
| Route | FAHAZ DCT KEROP DCT TISAK DCT OKLOP DCT RAXAD/N0339F190 L617 MAKED P36 ALIKO |
| Aircraft | A320/M-SDE3FGHIRWY/LB1 |
Departure
| Time | 2026-05-05 12:16 |
|---|---|
| Airport | Budapest Liszt Ferenc International Airport (LHBP) |
Arrival
| Time | 2026-05-05 13:23 |
|---|---|
| Airport | Thessaloniki Macedonia International Airport (LGTS) |
| Time | Latitude | Longitude | Altitude | Speed | Heading |
|---|---|---|---|---|---|
| 2026-05-05 11:47 | 47.43412 | 19.26134 | 457 ft | 0 kts | 130° |
| 2026-05-05 12:05 | 47.43412 | 19.26133 | 457 ft | 1 kts | 130° |
| 2026-05-05 12:05 | 47.43428 | 19.26105 | 455 ft | 4 kts | 127° |
| 2026-05-05 12:06 | 47.43443 | 19.26073 | 454 ft | 4 kts | 118° |
| 2026-05-05 12:06 | 47.43453 | 19.26037 | 457 ft | 4 kts | 91° |
| 2026-05-05 12:06 | 47.43448 | 19.26011 | 457 ft | 1 kts | 42° |
| 2026-05-05 12:06 | 47.43445 | 19.26008 | 457 ft | 0 kts | 42° |
| 2026-05-05 12:09 | 47.43455 | 19.26021 | 457 ft | 3 kts | 42° |
| 2026-05-05 12:10 | 47.43481 | 19.26055 | 457 ft | 7 kts | 42° |
| 2026-05-05 12:10 | 47.43524 | 19.26112 | 457 ft | 10 kts | 41° |
| 2026-05-05 12:10 | 47.43574 | 19.26177 | 457 ft | 11 kts | 41° |
| 2026-05-05 12:10 | 47.43637 | 19.26261 | 457 ft | 13 kts | 45° |
| 2026-05-05 12:11 | 47.43711 | 19.26363 | 458 ft | 15 kts | 43° |
| 2026-05-05 12:11 | 47.43800 | 19.26388 | 457 ft | 15 kts | 326° |
| 2026-05-05 12:11 | 47.43880 | 19.26270 | 458 ft | 18 kts | 311° |
| 2026-05-05 12:11 | 47.43983 | 19.26246 | 457 ft | 18 kts | 39° |
| 2026-05-05 12:12 | 47.44005 | 19.26274 | 460 ft | 0 kts | 44° |
| 2026-05-05 12:13 | 47.44005 | 19.26275 | 460 ft | 0 kts | 44° |
| 2026-05-05 12:13 | 47.44009 | 19.26280 | 458 ft | 1 kts | 44° |
| 2026-05-05 12:13 | 47.44014 | 19.26287 | 460 ft | 1 kts | 43° |
| 2026-05-05 12:14 | 47.44031 | 19.26312 | 462 ft | 5 kts | 46° |
| 2026-05-05 12:14 | 47.44048 | 19.26341 | 464 ft | 4 kts | 53° |
| 2026-05-05 12:14 | 47.44065 | 19.26399 | 466 ft | 5 kts | 75° |
| 2026-05-05 12:14 | 47.44074 | 19.26466 | 471 ft | 11 kts | 79° |
| 2026-05-05 12:15 | 47.44015 | 19.26609 | 469 ft | 34 kts | 134° |
| 2026-05-05 12:15 | 47.43683 | 19.27142 | 474 ft | 103 kts | 133° |
| 2026-05-05 12:15 | 47.43061 | 19.28085 | 513 ft | 150 kts | 136° |
| 2026-05-05 12:15 | 47.42387 | 19.29320 | 982 ft | 155 kts | 136° |
| 2026-05-05 12:16 | 47.41774 | 19.30648 | 1514 ft | 158 kts | 126° |
| 2026-05-05 12:16 | 47.41239 | 19.32072 | 2149 ft | 157 kts | 123° |
| 2026-05-05 12:16 | 47.40679 | 19.33547 | 2535 ft | 176 kts | 124° |
| 2026-05-05 12:16 | 47.40056 | 19.35220 | 2938 ft | 196 kts | 123° |
| 2026-05-05 12:17 | 47.39344 | 19.37079 | 3265 ft | 221 kts | 125° |
| 2026-05-05 12:17 | 47.38487 | 19.39107 | 3792 ft | 243 kts | 129° |
| 2026-05-05 12:17 | 47.37228 | 19.40916 | 4217 ft | 264 kts | 155° |
| 2026-05-05 12:17 | 47.35456 | 19.41407 | 5121 ft | 260 kts | 189° |
| 2026-05-05 12:18 | 47.33850 | 19.40291 | 6176 ft | 258 kts | 224° |
| 2026-05-05 12:18 | 47.32962 | 19.38007 | 7249 ft | 259 kts | 248° |
| 2026-05-05 12:18 | 47.32405 | 19.35460 | 8198 ft | 264 kts | 248° |
| 2026-05-05 12:18 | 47.31835 | 19.32862 | 9064 ft | 269 kts | 248° |
| 2026-05-05 12:19 | 47.31253 | 19.30221 | 9936 ft | 274 kts | 248° |
| 2026-05-05 12:19 | 47.30566 | 19.27547 | 10434 ft | 289 kts | 240° |
| 2026-05-05 12:19 | 47.29552 | 19.24880 | 10795 ft | 306 kts | 235° |
| 2026-05-05 12:19 | 47.28364 | 19.22226 | 11480 ft | 313 kts | 233° |
| 2026-05-05 12:20 | 47.27118 | 19.19577 | 12239 ft | 317 kts | 232° |
| 2026-05-05 12:20 | 47.25698 | 19.17100 | 12992 ft | 318 kts | 218° |
| 2026-05-05 12:20 | 47.23787 | 19.15471 | 13742 ft | 320 kts | 199° |
| 2026-05-05 12:20 | 47.21607 | 19.14701 | 14421 ft | 324 kts | 192° |
| 2026-05-05 12:21 | 47.19384 | 19.14025 | 15082 ft | 328 kts | 192° |
| 2026-05-05 12:21 | 47.17130 | 19.13354 | 15737 ft | 332 kts | 192° |
| 2026-05-05 12:21 | 47.14849 | 19.12677 | 16382 ft | 336 kts | 192° |
| 2026-05-05 12:21 | 47.12541 | 19.11989 | 17026 ft | 341 kts | 192° |
| 2026-05-05 12:22 | 47.10204 | 19.11290 | 17677 ft | 345 kts | 192° |
| 2026-05-05 12:22 | 47.07839 | 19.10577 | 18320 ft | 349 kts | 192° |
| 2026-05-05 12:22 | 47.05445 | 19.09852 | 18894 ft | 353 kts | 192° |
| 2026-05-05 12:22 | 47.03028 | 19.09122 | 19485 ft | 357 kts | 192° |
| 2026-05-05 12:23 | 47.00584 | 19.08384 | 20070 ft | 361 kts | 193° |
| 2026-05-05 12:23 | 46.98110 | 19.07639 | 20651 ft | 365 kts | 193° |
| 2026-05-05 12:23 | 46.95637 | 19.06893 | 21192 ft | 370 kts | 193° |
| 2026-05-05 12:23 | 46.93098 | 19.06164 | 21731 ft | 375 kts | 189° |
| 2026-05-05 12:24 | 46.90476 | 19.06010 | 22266 ft | 382 kts | 178° |
| 2026-05-05 12:24 | 46.87831 | 19.06689 | 22792 ft | 391 kts | 166° |
| 2026-05-05 12:24 | 46.85299 | 19.08229 | 23327 ft | 399 kts | 153° |
| 2026-05-05 12:24 | 46.82931 | 19.10405 | 23834 ft | 404 kts | 149° |
| 2026-05-05 12:25 | 46.80563 | 19.12630 | 24327 ft | 406 kts | 149° |
| 2026-05-05 12:25 | 46.78171 | 19.14858 | 24791 ft | 409 kts | 150° |
| 2026-05-05 12:25 | 46.75758 | 19.17093 | 25259 ft | 412 kts | 150° |
| 2026-05-05 12:25 | 46.73332 | 19.19337 | 25741 ft | 414 kts | 150° |
| 2026-05-05 12:26 | 46.70893 | 19.21596 | 26196 ft | 417 kts | 149° |
| 2026-05-05 12:26 | 46.68441 | 19.23870 | 26657 ft | 419 kts | 149° |
| 2026-05-05 12:26 | 46.65975 | 19.26152 | 27110 ft | 421 kts | 149° |
| 2026-05-05 12:26 | 46.63489 | 19.28450 | 27555 ft | 424 kts | 149° |
| 2026-05-05 12:27 | 46.61001 | 19.30751 | 27997 ft | 426 kts | 149° |
| 2026-05-05 12:27 | 46.58491 | 19.33070 | 28421 ft | 428 kts | 149° |
| 2026-05-05 12:27 | 46.55966 | 19.35397 | 28766 ft | 432 kts | 149° |
| 2026-05-05 12:27 | 46.53413 | 19.37739 | 29171 ft | 435 kts | 149° |
| 2026-05-05 12:28 | 46.50847 | 19.40095 | 29593 ft | 437 kts | 149° |
| 2026-05-05 12:28 | 46.48272 | 19.42460 | 29991 ft | 440 kts | 149° |
| 2026-05-05 12:28 | 46.45677 | 19.44841 | 30341 ft | 443 kts | 149° |
| 2026-05-05 12:28 | 46.43063 | 19.47236 | 30689 ft | 445 kts | 149° |
| 2026-05-05 12:29 | 46.40439 | 19.49639 | 31015 ft | 448 kts | 149° |
| 2026-05-05 12:29 | 46.37795 | 19.52058 | 31347 ft | 450 kts | 149° |
| 2026-05-05 12:29 | 46.35141 | 19.54483 | 31677 ft | 452 kts | 149° |
| 2026-05-05 12:29 | 46.32481 | 19.56909 | 32092 ft | 452 kts | 149° |
| 2026-05-05 12:30 | 46.29850 | 19.59306 | 32519 ft | 452 kts | 149° |
| 2026-05-05 12:30 | 46.27151 | 19.61765 | 32941 ft | 453 kts | 149° |
| 2026-05-05 12:30 | 46.24523 | 19.64155 | 33385 ft | 452 kts | 149° |
| 2026-05-05 12:30 | 46.21862 | 19.66568 | 33844 ft | 451 kts | 149° |
| 2026-05-05 12:31 | 46.19204 | 19.68971 | 34268 ft | 451 kts | 150° |
| 2026-05-05 12:31 | 46.16443 | 19.71089 | 34655 ft | 449 kts | 155° |
| 2026-05-05 12:31 | 46.13635 | 19.73073 | 35028 ft | 449 kts | 155° |
| 2026-05-05 12:31 | 46.10824 | 19.75057 | 35386 ft | 449 kts | 155° |
| 2026-05-05 12:32 | 46.08022 | 19.77029 | 35745 ft | 448 kts | 155° |
| 2026-05-05 12:32 | 46.05216 | 19.78999 | 36082 ft | 448 kts | 155° |
| 2026-05-05 12:32 | 46.02415 | 19.80966 | 36415 ft | 448 kts | 155° |
| 2026-05-05 12:32 | 45.99613 | 19.82931 | 36737 ft | 448 kts | 155° |
| 2026-05-05 12:33 | 45.96808 | 19.84893 | 36951 ft | 449 kts | 155° |
| 2026-05-05 12:33 | 45.94003 | 19.86855 | 36985 ft | 447 kts | 155° |
| 2026-05-05 12:33 | 45.88425 | 19.90760 | 36984 ft | 446 kts | 155° |
| 2026-05-05 12:34 | 45.82885 | 19.94630 | 36983 ft | 446 kts | 155° |
| 2026-05-05 12:34 | 45.72474 | 20.01875 | 36987 ft | 447 kts | 155° |
| 2026-05-05 12:35 | 45.61260 | 20.09627 | 36990 ft | 448 kts | 156° |
| 2026-05-05 12:35 | 45.50014 | 20.17386 | 36990 ft | 449 kts | 156° |
| 2026-05-05 12:36 | 45.38958 | 20.25710 | 36997 ft | 451 kts | 148° |
| 2026-05-05 12:36 | 45.28376 | 20.35361 | 36993 ft | 452 kts | 149° |
| 2026-05-05 12:37 | 45.17825 | 20.44919 | 37002 ft | 453 kts | 148° |
| 2026-05-05 12:37 | 45.07173 | 20.54559 | 36996 ft | 455 kts | 148° |
| 2026-05-05 12:38 | 44.96475 | 20.64170 | 37009 ft | 456 kts | 149° |
| 2026-05-05 12:38 | 44.85744 | 20.73766 | 37016 ft | 457 kts | 148° |
| 2026-05-05 12:39 | 44.74997 | 20.83369 | 37023 ft | 458 kts | 149° |
| 2026-05-05 12:39 | 44.64222 | 20.92919 | 37023 ft | 459 kts | 148° |
| 2026-05-05 12:40 | 44.53411 | 21.02466 | 37017 ft | 459 kts | 149° |
| 2026-05-05 12:40 | 44.42575 | 21.12001 | 37029 ft | 460 kts | 149° |
| 2026-05-05 12:41 | 44.31723 | 21.21508 | 37021 ft | 461 kts | 149° |
| 2026-05-05 12:41 | 44.20832 | 21.30996 | 37037 ft | 461 kts | 149° |
| 2026-05-05 12:42 | 44.15060 | 21.34835 | 37033 ft | 459 kts | 162° |
| 2026-05-05 12:42 | 44.09038 | 21.37815 | 37022 ft | 460 kts | 162° |
| 2026-05-05 12:42 | 44.02229 | 21.41234 | 37022 ft | 460 kts | 162° |
| 2026-05-05 12:43 | 43.96202 | 21.44242 | 37028 ft | 461 kts | 162° |
| 2026-05-05 12:43 | 43.90162 | 21.47248 | 37031 ft | 462 kts | 162° |
| 2026-05-05 12:44 | 43.84106 | 21.50251 | 37033 ft | 463 kts | 162° |
| 2026-05-05 12:44 | 43.78040 | 21.53262 | 37034 ft | 463 kts | 162° |
| 2026-05-05 12:45 | 43.71970 | 21.56261 | 37039 ft | 464 kts | 162° |
| 2026-05-05 12:45 | 43.65929 | 21.59241 | 37028 ft | 464 kts | 162° |
| 2026-05-05 12:46 | 43.59847 | 21.62234 | 37041 ft | 464 kts | 162° |
| 2026-05-05 12:46 | 43.53764 | 21.65225 | 37035 ft | 465 kts | 162° |
| 2026-05-05 12:47 | 43.47670 | 21.68213 | 37027 ft | 465 kts | 162° |
| 2026-05-05 12:47 | 43.41557 | 21.71198 | 37028 ft | 466 kts | 162° |
| 2026-05-05 12:48 | 43.35443 | 21.74176 | 37031 ft | 466 kts | 162° |
| 2026-05-05 12:48 | 43.29326 | 21.77158 | 37018 ft | 467 kts | 162° |
| 2026-05-05 12:49 | 43.26254 | 21.78652 | 36200 ft | 473 kts | 162° |
| 2026-05-05 12:49 | 43.23108 | 21.80181 | 35075 ft | 484 kts | 162° |
| 2026-05-05 12:49 | 43.19957 | 21.81713 | 34644 ft | 477 kts | 162° |
| 2026-05-05 12:49 | 43.16838 | 21.83231 | 34101 ft | 475 kts | 162° |
| 2026-05-05 12:50 | 43.13737 | 21.84739 | 33525 ft | 471 kts | 162° |
| 2026-05-05 12:50 | 43.10663 | 21.86229 | 32999 ft | 467 kts | 162° |
| 2026-05-05 12:50 | 43.07615 | 21.87705 | 32463 ft | 463 kts | 162° |
| 2026-05-05 12:50 | 43.04582 | 21.89168 | 31919 ft | 460 kts | 162° |
| 2026-05-05 12:51 | 43.01574 | 21.90612 | 31419 ft | 456 kts | 162° |
| 2026-05-05 12:51 | 42.98589 | 21.92044 | 30895 ft | 453 kts | 162° |
| 2026-05-05 12:51 | 42.95625 | 21.93464 | 30390 ft | 450 kts | 162° |
| 2026-05-05 12:51 | 42.92681 | 21.94875 | 29851 ft | 447 kts | 161° |
| 2026-05-05 12:52 | 42.89799 | 21.96257 | 29373 ft | 442 kts | 161° |
| 2026-05-05 12:52 | 42.86905 | 21.97643 | 28886 ft | 438 kts | 161° |
| 2026-05-05 12:52 | 42.84050 | 21.99010 | 28432 ft | 433 kts | 161° |
| 2026-05-05 12:52 | 42.81214 | 22.00369 | 27974 ft | 430 kts | 162° |
| 2026-05-05 12:53 | 42.78405 | 22.01711 | 27530 ft | 426 kts | 161° |
| 2026-05-05 12:53 | 42.75618 | 22.03043 | 27088 ft | 423 kts | 161° |
| 2026-05-05 12:53 | 42.72850 | 22.04365 | 26645 ft | 421 kts | 161° |
| 2026-05-05 12:53 | 42.70092 | 22.05681 | 26205 ft | 419 kts | 161° |
| 2026-05-05 12:54 | 42.64610 | 22.08293 | 25299 ft | 417 kts | 161° |
| 2026-05-05 12:54 | 42.61875 | 22.09593 | 24835 ft | 417 kts | 161° |
| 2026-05-05 12:54 | 42.60056 | 22.10458 | 24518 ft | 417 kts | 161° |
| 2026-05-05 12:55 | 42.57318 | 22.11762 | 24090 ft | 416 kts | 161° |
| 2026-05-05 12:55 | 42.54592 | 22.13061 | 23618 ft | 417 kts | 161° |
| 2026-05-05 12:55 | 42.51874 | 22.14353 | 23257 ft | 412 kts | 161° |
| 2026-05-05 12:55 | 42.49192 | 22.15626 | 22486 ft | 406 kts | 161° |
| 2026-05-05 12:56 | 42.46559 | 22.16872 | 22007 ft | 398 kts | 161° |
| 2026-05-05 12:56 | 42.43947 | 22.18107 | 21522 ft | 396 kts | 160° |
| 2026-05-05 12:56 | 42.41354 | 22.19332 | 21036 ft | 394 kts | 160° |
| 2026-05-05 12:56 | 42.38777 | 22.20549 | 20558 ft | 391 kts | 160° |
| 2026-05-05 12:57 | 42.36211 | 22.21760 | 20094 ft | 389 kts | 160° |
| 2026-05-05 12:57 | 42.33673 | 22.22956 | 19611 ft | 386 kts | 160° |
| 2026-05-05 12:57 | 42.31143 | 22.24114 | 19266 ft | 380 kts | 163° |
| 2026-05-05 12:57 | 42.28590 | 22.24823 | 18788 ft | 378 kts | 170° |
| 2026-05-05 12:58 | 42.26018 | 22.25412 | 18514 ft | 370 kts | 170° |
| 2026-05-05 12:58 | 42.23525 | 22.25996 | 18342 ft | 359 kts | 169° |
| 2026-05-05 12:58 | 42.21091 | 22.26574 | 18093 ft | 352 kts | 169° |
| 2026-05-05 12:58 | 42.18693 | 22.27146 | 17863 ft | 349 kts | 169° |
| 2026-05-05 12:59 | 42.16299 | 22.27716 | 17624 ft | 348 kts | 169° |
| 2026-05-05 12:59 | 42.13924 | 22.28279 | 17409 ft | 346 kts | 169° |
| 2026-05-05 12:59 | 42.11556 | 22.28836 | 17165 ft | 345 kts | 169° |
| 2026-05-05 13:00 | 42.06845 | 22.29942 | 16709 ft | 341 kts | 170° |
| 2026-05-05 13:00 | 42.04513 | 22.30489 | 16481 ft | 340 kts | 170° |
| 2026-05-05 13:01 | 41.97542 | 22.32122 | 15803 ft | 337 kts | 170° |
| 2026-05-05 13:01 | 41.95235 | 22.32660 | 15582 ft | 336 kts | 170° |
| 2026-05-05 13:01 | 41.92935 | 22.33196 | 15363 ft | 335 kts | 170° |
| 2026-05-05 13:01 | 41.90642 | 22.33731 | 15136 ft | 333 kts | 170° |
| 2026-05-05 13:02 | 41.88362 | 22.34266 | 14918 ft | 333 kts | 170° |
| 2026-05-05 13:02 | 41.86084 | 22.34801 | 14698 ft | 331 kts | 170° |
| 2026-05-05 13:02 | 41.83819 | 22.35333 | 14471 ft | 330 kts | 170° |
| 2026-05-05 13:02 | 41.81563 | 22.35863 | 14256 ft | 328 kts | 170° |
| 2026-05-05 13:03 | 41.79315 | 22.36389 | 14035 ft | 328 kts | 170° |
| 2026-05-05 13:03 | 41.77071 | 22.36909 | 13806 ft | 327 kts | 170° |
| 2026-05-05 13:03 | 41.74835 | 22.37426 | 13578 ft | 325 kts | 170° |
| 2026-05-05 13:03 | 41.72610 | 22.37943 | 13360 ft | 324 kts | 170° |
| 2026-05-05 13:04 | 41.70391 | 22.38458 | 13150 ft | 322 kts | 170° |
| 2026-05-05 13:04 | 41.68187 | 22.38967 | 12934 ft | 321 kts | 170° |
| 2026-05-05 13:04 | 41.65993 | 22.39474 | 12702 ft | 320 kts | 170° |
| 2026-05-05 13:04 | 41.63804 | 22.39979 | 12509 ft | 318 kts | 170° |
| 2026-05-05 13:05 | 41.61659 | 22.40474 | 12300 ft | 317 kts | 170° |
| 2026-05-05 13:05 | 41.59493 | 22.40976 | 12094 ft | 316 kts | 169° |
| 2026-05-05 13:05 | 41.57332 | 22.41480 | 11880 ft | 314 kts | 170° |
| 2026-05-05 13:05 | 41.55180 | 22.41979 | 11669 ft | 313 kts | 170° |
| 2026-05-05 13:06 | 41.53039 | 22.42473 | 11461 ft | 311 kts | 170° |
| 2026-05-05 13:06 | 41.50903 | 22.42965 | 11254 ft | 310 kts | 170° |
| 2026-05-05 13:06 | 41.48786 | 22.43451 | 11053 ft | 308 kts | 170° |
| 2026-05-05 13:06 | 41.46680 | 22.43934 | 10839 ft | 306 kts | 170° |
| 2026-05-05 13:07 | 41.44589 | 22.44414 | 10644 ft | 304 kts | 170° |
| 2026-05-05 13:07 | 41.42504 | 22.44894 | 10445 ft | 303 kts | 170° |
| 2026-05-05 13:07 | 41.40433 | 22.45370 | 10239 ft | 302 kts | 170° |
| 2026-05-05 13:07 | 41.38374 | 22.45842 | 10040 ft | 297 kts | 169° |
| 2026-05-05 13:08 | 41.36350 | 22.46308 | 9827 ft | 293 kts | 171° |
| 2026-05-05 13:08 | 41.34349 | 22.46767 | 9633 ft | 292 kts | 171° |
| 2026-05-05 13:08 | 41.32349 | 22.47226 | 9437 ft | 291 kts | 171° |
| 2026-05-05 13:08 | 41.30356 | 22.47686 | 9241 ft | 290 kts | 171° |
| 2026-05-05 13:09 | 41.28373 | 22.48140 | 9053 ft | 289 kts | 171° |
| 2026-05-05 13:09 | 41.26397 | 22.48592 | 8856 ft | 288 kts | 171° |
| 2026-05-05 13:09 | 41.24425 | 22.49043 | 8671 ft | 287 kts | 171° |
| 2026-05-05 13:09 | 41.22485 | 22.49487 | 8462 ft | 287 kts | 171° |
| 2026-05-05 13:10 | 41.20515 | 22.49939 | 8283 ft | 287 kts | 171° |
| 2026-05-05 13:10 | 41.18572 | 22.50514 | 8067 ft | 285 kts | 157° |
| 2026-05-05 13:10 | 41.17040 | 22.52128 | 7942 ft | 285 kts | 123° |
| 2026-05-05 13:10 | 41.16137 | 22.54464 | 7826 ft | 286 kts | 117° |
| 2026-05-05 13:11 | 41.14887 | 22.56494 | 7695 ft | 285 kts | 142° |
| 2026-05-05 13:11 | 41.13204 | 22.57873 | 7599 ft | 285 kts | 153° |
| 2026-05-05 13:11 | 41.11418 | 22.59021 | 7493 ft | 285 kts | 155° |
| 2026-05-05 13:11 | 41.09648 | 22.60211 | 7384 ft | 286 kts | 148° |
| 2026-05-05 13:12 | 41.07974 | 22.61623 | 7261 ft | 286 kts | 147° |
| 2026-05-05 13:12 | 41.06316 | 22.63070 | 7137 ft | 285 kts | 146° |
| 2026-05-05 13:12 | 41.04676 | 22.64520 | 7015 ft | 283 kts | 146° |
| 2026-05-05 13:12 | 41.03036 | 22.65970 | 6892 ft | 284 kts | 146° |
| 2026-05-05 13:13 | 41.01391 | 22.67424 | 6771 ft | 283 kts | 146° |
| 2026-05-05 13:13 | 40.99756 | 22.68866 | 6649 ft | 282 kts | 146° |
| 2026-05-05 13:13 | 40.98121 | 22.70302 | 6530 ft | 282 kts | 147° |
| 2026-05-05 13:13 | 40.96488 | 22.71729 | 6403 ft | 280 kts | 147° |
| 2026-05-05 13:14 | 40.94860 | 22.73147 | 6276 ft | 280 kts | 147° |
| 2026-05-05 13:14 | 40.93232 | 22.74564 | 6147 ft | 280 kts | 147° |
| 2026-05-05 13:14 | 40.91606 | 22.75977 | 6016 ft | 280 kts | 146° |
| 2026-05-05 13:14 | 40.89978 | 22.77392 | 5853 ft | 279 kts | 147° |
| 2026-05-05 13:15 | 40.88389 | 22.78773 | 5546 ft | 277 kts | 147° |
| 2026-05-05 13:15 | 40.86796 | 22.80157 | 5385 ft | 270 kts | 147° |
| 2026-05-05 13:15 | 40.85259 | 22.81494 | 5307 ft | 259 kts | 147° |
| 2026-05-05 13:15 | 40.83780 | 22.82782 | 5203 ft | 250 kts | 147° |
| 2026-05-05 13:16 | 40.82352 | 22.84029 | 5090 ft | 241 kts | 148° |
| 2026-05-05 13:16 | 40.80981 | 22.85224 | 4980 ft | 231 kts | 147° |
| 2026-05-05 13:16 | 40.79660 | 22.86371 | 4891 ft | 225 kts | 148° |
| 2026-05-05 13:16 | 40.78376 | 22.87486 | 4789 ft | 216 kts | 147° |
| 2026-05-05 13:17 | 40.77145 | 22.88554 | 4707 ft | 209 kts | 147° |
| 2026-05-05 13:17 | 40.75862 | 22.89410 | 4550 ft | 208 kts | 163° |
| 2026-05-05 13:17 | 40.74462 | 22.89921 | 4273 ft | 208 kts | 168° |
| 2026-05-05 13:17 | 40.73068 | 22.90367 | 3954 ft | 203 kts | 168° |
| 2026-05-05 13:18 | 40.71702 | 22.90802 | 3696 ft | 201 kts | 169° |
| 2026-05-05 13:18 | 40.70361 | 22.91231 | 3434 ft | 194 kts | 168° |
| 2026-05-05 13:18 | 40.69089 | 22.91637 | 3190 ft | 183 kts | 169° |
| 2026-05-05 13:18 | 40.67888 | 22.92022 | 2965 ft | 173 kts | 169° |
| 2026-05-05 13:19 | 40.66733 | 22.92390 | 2735 ft | 169 kts | 168° |
| 2026-05-05 13:19 | 40.65607 | 22.92749 | 2507 ft | 165 kts | 168° |
| 2026-05-05 13:19 | 40.64511 | 22.93099 | 2309 ft | 160 kts | 169° |
| 2026-05-05 13:19 | 40.63437 | 22.93442 | 2097 ft | 159 kts | 169° |
| 2026-05-05 13:20 | 40.62370 | 22.93782 | 1888 ft | 156 kts | 169° |
| 2026-05-05 13:20 | 40.61332 | 22.94114 | 1688 ft | 151 kts | 168° |
| 2026-05-05 13:20 | 40.60356 | 22.94425 | 1504 ft | 143 kts | 168° |
| 2026-05-05 13:20 | 40.59407 | 22.94724 | 1333 ft | 140 kts | 169° |
| 2026-05-05 13:21 | 40.58471 | 22.95023 | 1166 ft | 137 kts | 169° |
| 2026-05-05 13:21 | 40.57553 | 22.95337 | 950 ft | 136 kts | 166° |
| 2026-05-05 13:21 | 40.56645 | 22.95667 | 786 ft | 135 kts | 168° |
| 2026-05-05 13:21 | 40.55731 | 22.95945 | 601 ft | 134 kts | 171° |
| 2026-05-05 13:22 | 40.54823 | 22.96209 | 395 ft | 134 kts | 172° |
| 2026-05-05 13:22 | 40.53915 | 22.96489 | 271 ft | 134 kts | 169° |
| 2026-05-05 13:22 | 40.53002 | 22.96770 | 98 ft | 135 kts | 169° |
| 2026-05-05 13:22 | 40.52129 | 22.97052 | 29 ft | 118 kts | 167° |
| 2026-05-05 13:23 | 40.51540 | 22.97234 | 30 ft | 46 kts | 166° |
| 2026-05-05 13:23 | 40.51340 | 22.97297 | 32 ft | 28 kts | 167° |
| 2026-05-05 13:23 | 40.51140 | 22.97354 | 29 ft | 30 kts | 168° |
| 2026-05-05 13:23 | 40.50966 | 22.97468 | 27 ft | 28 kts | 126° |
| 2026-05-05 13:24 | 40.51074 | 22.97563 | 29 ft | 26 kts | 351° |
| 2026-05-05 13:24 | 40.51260 | 22.97510 | 29 ft | 29 kts | 346° |
| 2026-05-05 13:24 | 40.51418 | 22.97455 | 29 ft | 21 kts | 346° |
| 2026-05-05 13:24 | 40.51573 | 22.97403 | 29 ft | 25 kts | 346° |
| 2026-05-05 13:25 | 40.51698 | 22.97365 | 29 ft | 12 kts | 347° |
| 2026-05-05 13:25 | 40.51794 | 22.97336 | 29 ft | 16 kts | 347° |
| 2026-05-05 13:25 | 40.51920 | 22.97296 | 26 ft | 21 kts | 346° |
| 2026-05-05 13:25 | 40.52072 | 22.97247 | 28 ft | 24 kts | 346° |
| 2026-05-05 13:26 | 40.52239 | 22.97193 | 28 ft | 19 kts | 347° |
| 2026-05-05 13:26 | 40.52326 | 22.97168 | 28 ft | 11 kts | 347° |
| 2026-05-05 13:26 | 40.52383 | 22.97221 | 29 ft | 13 kts | 76° |
| 2026-05-05 13:26 | 40.52403 | 22.97315 | 29 ft | 5 kts | 66° |
| 2026-05-05 13:27 | 40.52433 | 22.97357 | 29 ft | 7 kts | 44° |
| 2026-05-05 13:27 | 40.52458 | 22.97390 | 29 ft | 0 kts | 45° |